Date,TemperatureHighF,TemperatureAvgF,TemperatureLowF,DewpointHighF,DewpointAvgF,DewpointLowF,HumidityHigh,HumidityAvg,HumidityLow,PressureMaxIn,PressureMinIn,WindSpeedMaxMPH,WindSpeedAvgMPH,GustSpeedMaxMPH,PrecipitationSumIn
2013-3-1,74,59,48,56,50,45,92,75,45,30.43,30.24,6,0,6,0.00
2013-3-2,69,58,51,55,50,47,87,77,59,30.24,30.07,17,2,17,0.00
2013-3-3,64,52,46,52,47,42,91,84,61,30.10,30.04,24,8,24,0.00
2013-3-4,55,48,42,48,43,39,91,85,74,30.16,30.07,27,3,27,0.00
2013-3-5,56,48,42,46,43,39,90,81,69,30.08,29.83,37,11,37,0.12
2013-3-6,55,50,45,48,44,42,91,82,67,30.07,29.83,41,11,45,0.04
2013-3-7,56,48,43,48,43,41,91,85,69,30.00,29.87,12,0,12,0.01
2013-3-8,66,52,45,49,42,37,85,69,44,30.05,29.84,9,0,9,0.00
2013-3-9,71,55,43,50,43,38,86,66,38,30.31,30.05,10,1,10,0.00
2013-3-10,66,55,47,52,44,37,87,66,40,30.35,30.25,15,3,16,0.00
2013-3-11,72,55,46,52,45,40,90,70,40,30.26,30.11,15,2,15,0.00
2013-3-12,75,56,47,62,50,44,93,81,51,30.17,30.08,8,1,8,0.00
2013-3-13,79,61,48,59,52,46,92,73,38,30.17,30.07,5,0,5,0.00
2013-3-14,66,57,50,55,50,45,90,78,58,30.17,30.08,11,1,11,0.00
2013-3-15,70,56,48,55,48,44,89,75,54,30.14,30.04,15,1,15,0.00
2013-3-16,74,57,48,55,47,41,93,73,35,30.12,30.03,11,2,11,0.00
2013-3-17,66,56,48,49,44,40,84,66,45,30.15,30.04,14,2,14,0.00
2013-3-18,61,52,46,50,46,42,90,79,61,30.13,30.04,23,3,23,0.00
2013-3-19,60,52,47,51,46,42,88,79,62,30.14,30.06,18,3,18,0.06
2013-3-20,56,52,48,52,49,43,93,90,80,30.15,30.07,22,5,24,0.12
2013-3-21,66,52,42,49,44,40,93,75,49,30.14,30.02,12,1,12,0.01
2013-3-22,73,56,45,45,38,28,82,54,21,30.13,30.03,10,0,10,0.00
2013-3-23,68,55,46,44,37,27,82,54,24,30.15,30.05,14,2,14,0.00
2013-3-24,64,53,46,50,45,42,88,76,53,30.10,29.98,13,2,15,0.00
2013-3-25,57,49,44,48,44,41,90,82,71,30.03,29.94,19,5,19,0.00
2013-3-26,60,51,44,50,45,40,88,80,70,30.02,29.95,17,4,17,0.00
2013-3-27,57,52,48,52,49,44,93,88,82,30.03,29.96,14,4,14,0.00
2013-3-28,64,55,52,57,52,49,93,88,74,30.10,30.01,14,4,16,0.00
2013-3-29,78,58,50,60,51,47,90,80,49,30.09,30.02,17,2,18,0.01
2013-3-30,66,55,51,56,50,48,91,86,70,30.08,29.98,24,8,26,0.07
2013-3-31,63,56,52,56,52,49,89,86,75,30.08,30.00,21,6,22,0.06